Time;durP1;ratioP1;P1;durP2;ratioP2;P2;SDS_P1;SDS_P2;PMS_P1;PMS_P2;Temp;Humidity;BMP_temperature;BMP_pressure;BME280_temperature;BME280_humidity;BME280_pressure;Samples;Min_cycle;Max_cycle;Signal;HPM_P1;HPM_P2
2021/04/14 00:02:02;;;;;;;3.70;2.70;;;8.90;99.90;;;;;;5072488;28;20267;-74
2021/04/14 00:04:28;;;;;;;3.47;2.13;;;9.00;99.90;;;;;;5072576;28;20275;-76
2021/04/14 00:06:58;;;;;;;4.20;1.93;;;8.90;99.90;;;;;;5072189;28;20210;-75
2021/04/14 00:09:25;;;;;;;3.70;2.50;;;8.80;99.90;;;;;;5072510;28;20210;-73
2021/04/14 00:11:52;;;;;;;3.60;3.10;;;8.70;99.90;;;;;;5071202;28;20251;-73
2021/04/14 00:14:18;;;;;;;4.27;2.33;;;8.60;99.90;;;;;;5072294;28;20601;-71
2021/04/14 00:16:45;;;;;;;3.10;2.30;;;8.70;99.90;;;;;;5071933;28;20206;-75
2021/04/14 00:19:11;;;;;;;5.23;1.97;;;8.60;99.90;;;;;;5072532;28;20252;-75
2021/04/14 00:21:38;;;;;;;3.27;2.47;;;8.60;99.90;;;;;;5072041;28;20206;-75
2021/04/14 00:24:06;;;;;;;3.53;2.20;;;8.50;99.90;;;;;;5072673;28;20280;-75
2021/04/14 00:26:32;;;;;;;2.80;2.33;;;8.50;99.90;;;;;;5072723;28;20209;-75
2021/04/14 00:28:59;;;;;;;3.67;2.30;;;8.50;99.90;;;;;;5071462;28;20350;-74
2021/04/14 00:31:35;;;;;;;3.73;2.17;;;8.50;99.90;;;;;;5072414;28;20381;-74
2021/04/14 00:34:04;;;;;;;3.90;2.23;;;8.50;99.90;;;;;;5071604;28;20206;-75
2021/04/14 00:36:30;;;;;;;3.97;2.40;;;8.40;99.90;;;;;;5072364;28;20206;-75
2021/04/14 00:38:57;;;;;;;2.00;1.83;;;8.40;99.90;;;;;;5071246;28;20255;-74
2021/04/14 00:41:24;;;;;;;2.80;2.30;;;8.40;99.90;;;;;;5071661;28;20578;-75
2021/04/14 00:43:51;;;;;;;2.50;2.30;;;8.20;99.90;;;;;;5070460;28;20229;-73
2021/04/14 00:46:17;;;;;;;5.30;2.87;;;8.20;99.90;;;;;;5071835;28;20202;-74
2021/04/14 00:48:43;;;;;;;2.33;2.00;;;8.20;99.90;;;;;;5071168;28;20214;-74
2021/04/14 00:51:11;;;;;;;6.50;2.47;;;8.20;99.90;;;;;;5071175;28;20210;-74
2021/04/14 00:53:38;;;;;;;4.57;2.70;;;8.20;99.90;;;;;;5071662;28;20216;-76
2021/04/14 00:56:05;;;;;;;3.00;2.73;;;8.20;99.90;;;;;;5071875;28;20264;-76
2021/04/14 00:58:32;;;;;;;3.27;2.00;;;8.20;99.90;;;;;;5072076;28;20688;-76
2021/04/14 01:00:59;;;;;;;2.60;2.17;;;8.20;99.90;;;;;;5070836;28;20264;-73
2021/04/14 01:03:31;;;;;;;2.13;1.80;;;8.20;99.90;;;;;;5071611;28;20222;-73
2021/04/14 01:05:59;;;;;;;4.07;2.37;;;8.20;99.90;;;;;;5070596;28;20336;-73
2021/04/14 01:08:25;;;;;;;3.60;2.60;;;8.00;99.90;;;;;;5071424;28;20600;-74
2021/04/14 01:10:52;;;;;;;2.30;2.10;;;8.00;99.90;;;;;;5070931;28;20297;-71
2021/04/14 01:13:19;;;;;;;3.97;2.70;;;7.90;99.90;;;;;;5071349;28;20583;-73
2021/04/14 01:15:48;;;;;;;3.23;2.80;;;7.80;99.90;;;;;;5070269;28;20226;-72
2021/04/14 01:18:18;;;;;;;3.30;3.00;;;7.80;99.90;;;;;;5071211;28;20217;-73
2021/04/14 01:20:44;;;;;;;4.47;2.40;;;7.70;99.90;;;;;;5070721;28;20221;-75
2021/04/14 01:23:12;;;;;;;2.77;2.57;;;7.80;99.90;;;;;;5071114;28;20214;-72
2021/04/14 01:25:41;;;;;;;5.30;2.20;;;7.70;99.90;;;;;;5070555;28;20569;-71
2021/04/14 01:28:11;;;;;;;3.53;2.77;;;7.70;99.90;;;;;;5070955;28;20213;-72
2021/04/14 01:30:38;;;;;;;3.00;2.50;;;7.70;99.90;;;;;;5071579;28;20213;-72
2021/04/14 01:33:05;;;;;;;3.37;3.13;;;7.60;99.90;;;;;;5071199;28;20206;-73
2021/04/14 01:35:31;;;;;;;2.83;2.43;;;7.60;99.90;;;;;;5070704;28;20716;-73
2021/04/14 01:37:58;;;;;;;2.93;2.40;;;7.60;99.90;;;;;;5070532;28;20217;-73
2021/04/14 01:40:26;;;;;;;4.87;2.40;;;7.60;99.90;;;;;;5071073;28;20210;-75
2021/04/14 01:42:53;;;;;;;4.27;3.10;;;7.70;99.90;;;;;;5070293;28;20297;-73
2021/04/14 01:45:24;;;;;;;3.97;3.63;;;7.60;99.90;;;;;;5071148;28;20205;-75
2021/04/14 01:47:50;;;;;;;3.47;2.73;;;7.60;99.90;;;;;;5070348;28;20217;-74
2021/04/14 01:50:18;;;;;;;2.90;2.33;;;7.50;99.90;;;;;;5070266;28;20252;-74
2021/04/14 01:52:45;;;;;;;3.33;3.03;;;7.50;99.90;;;;;;5070169;28;20666;-76
2021/04/14 01:55:12;;;;;;;2.93;2.40;;;7.40;99.90;;;;;;5070493;28;20233;-76
2021/04/14 01:57:40;;;;;;;3.07;2.77;;;7.40;99.90;;;;;;5070491;28;20202;-73
2021/04/14 02:00:14;;;;;;;3.50;2.37;;;7.30;99.90;;;;;;5070295;28;20206;-76
2021/04/14 02:02:41;;;;;;;3.20;2.87;;;7.40;99.90;;;;;;5070028;28;20567;-76
2021/04/14 02:05:09;;;;;;;4.70;3.13;;;7.30;99.90;;;;;;5070339;28;20578;-74
2021/04/14 02:07:36;;;;;;;3.03;2.70;;;7.20;99.90;;;;;;5070453;28;20666;-74
2021/04/14 02:10:05;;;;;;;3.43;2.27;;;7.30;99.90;;;;;;5070259;28;20202;-74
2021/04/14 02:12:31;;;;;;;2.73;2.23;;;7.20;99.90;;;;;;5070494;28;20202;-74
2021/04/14 02:14:59;;;;;;;2.67;2.47;;;7.20;99.90;;;;;;5069869;28;20422;-75
2021/04/14 02:17:25;;;;;;;2.77;2.57;;;7.10;99.90;;;;;;5070502;28;20572;-74
2021/04/14 02:19:52;;;;;;;4.30;2.93;;;7.10;99.90;;;;;;5069692;28;20202;-76
2021/04/14 02:22:18;;;;;;;4.07;2.53;;;7.00;99.90;;;;;;5070120;28;20263;-73
2021/04/14 02:24:45;;;;;;;4.07;2.73;;;7.10;99.90;;;;;;5070229;28;20202;-73
2021/04/14 02:27:11;;;;;;;2.13;1.93;;;7.10;99.90;;;;;;5070535;28;20268;-74
2021/04/14 02:29:38;;;;;;;4.37;3.20;;;7.10;99.90;;;;;;5070105;28;20625;-74
2021/04/14 02:32:06;;;;;;;5.37;3.33;;;7.00;99.90;;;;;;5070884;28;20202;-73
2021/04/14 02:34:32;;;;;;;3.30;3.00;;;6.90;99.90;;;;;;5071468;28;20222;-74
2021/04/14 02:36:59;;;;;;;3.20;2.90;;;6.90;99.90;;;;;;5074065;28;20582;-73
2021/04/14 02:39:25;;;;;;;3.00;2.70;;;6.90;99.90;;;;;;5073960;28;20595;-74
2021/04/14 02:41:52;;;;;;;5.27;2.93;;;6.90;99.90;;;;;;5074196;28;20201;-75
2021/04/14 02:44:19;;;;;;;3.03;2.50;;;6.90;99.90;;;;;;5074226;28;20237;-73
2021/04/14 02:46:45;;;;;;;3.97;3.20;;;6.90;99.90;;;;;;5073692;28;20640;-73
2021/04/14 02:49:13;;;;;;;3.27;2.67;;;6.90;99.90;;;;;;5073769;28;20206;-74
2021/04/14 02:51:39;;;;;;;4.80;3.20;;;7.00;99.90;;;;;;5073361;28;20209;-73
2021/04/14 02:54:06;;;;;;;4.50;3.13;;;7.10;99.90;;;;;;5074331;28;20206;-74
2021/04/14 02:56:32;;;;;;;5.60;2.43;;;6.90;99.90;;;;;;5074500;28;20206;-74
2021/04/14 02:59:00;;;;;;;5.10;3.03;;;6.70;99.90;;;;;;5073304;28;20218;-76
2021/04/14 03:01:27;;;;;;;4.53;3.33;;;6.80;99.90;;;;;;5073864;28;20217;-72
2021/04/14 03:03:54;;;;;;;3.37;2.60;;;6.70;99.90;;;;;;5072930;28;20256;-73
2021/04/14 03:06:21;;;;;;;3.83;2.73;;;6.70;99.90;;;;;;5073574;28;20267;-74
2021/04/14 03:08:48;;;;;;;4.03;3.53;;;6.70;99.90;;;;;;5073344;28;20264;-73
2021/04/14 03:11:14;;;;;;;4.47;2.93;;;6.70;99.90;;;;;;5073941;28;20213;-73
2021/04/14 03:13:41;;;;;;;3.70;2.90;;;6.80;99.90;;;;;;5073212;28;20206;-73
2021/04/14 03:16:07;;;;;;;3.50;2.93;;;6.80;99.90;;;;;;5073476;28;20229;-75
2021/04/14 03:18:34;;;;;;;3.30;3.00;;;6.70;99.90;;;;;;5073579;28;20202;-73
2021/04/14 03:21:01;;;;;;;4.77;2.80;;;6.60;99.90;;;;;;5073310;28;20206;-73
2021/04/14 03:23:29;;;;;;;3.67;3.37;;;6.50;99.90;;;;;;5073356;28;20217;-75
2021/04/14 03:25:55;;;;;;;3.87;2.47;;;6.50;99.90;;;;;;5072842;28;20565;-75
2021/04/14 03:28:22;;;;;;;14.30;3.87;;;6.40;99.90;;;;;;5073248;28;20217;-73
2021/04/14 03:30:48;;;;;;;5.87;2.63;;;6.40;99.90;;;;;;5072413;28;20728;-74
2021/04/14 03:33:15;;;;;;;3.50;3.20;;;6.50;99.90;;;;;;5073248;28;20209;-74
2021/04/14 03:35:42;;;;;;;3.30;3.00;;;6.50;99.90;;;;;;5072929;28;20241;-75
2021/04/14 03:38:09;;;;;;;4.97;2.77;;;6.50;99.90;;;;;;5072975;28;20206;-76
2021/04/14 03:40:36;;;;;;;4.40;3.00;;;6.30;99.90;;;;;;5073612;28;20259;-77
2021/04/14 03:43:03;;;;;;;3.73;3.30;;;6.40;99.90;;;;;;5072963;28;20271;-75
2021/04/14 03:45:36;;;;;;;3.60;3.30;;;6.40;99.90;;;;;;5071794;28;20206;-77
2021/04/14 03:48:02;;;;;;;3.93;3.53;;;6.30;99.90;;;;;;5072493;28;20612;-77
2021/04/14 03:50:29;;;;;;;3.93;2.83;;;6.30;99.90;;;;;;5072950;28;20199;-76
2021/04/14 03:52:56;;;;;;;4.73;3.13;;;6.30;99.90;;;;;;5072715;28;20244;-75
2021/04/14 03:55:24;;;;;;;3.37;3.07;;;6.20;99.90;;;;;;5072594;28;20226;-74
2021/04/14 03:57:51;;;;;;;3.50;2.47;;;6.10;99.90;;;;;;5072649;28;20586;-75
2021/04/14 04:00:18;;;;;;;3.37;2.70;;;6.20;99.90;;;;;;5072228;28;20218;-75
2021/04/14 04:02:45;;;;;;;3.37;2.50;;;6.30;99.90;;;;;;5072535;28;20202;-75
2021/04/14 04:05:12;;;;;;;3.17;2.87;;;6.30;99.90;;;;;;5072690;28;20206;-72
2021/04/14 04:07:38;;;;;;;3.40;3.07;;;6.20;99.90;;;;;;5072415;28;20205;-73
2021/04/14 04:10:08;;;;;;;4.03;3.43;;;6.10;99.90;;;;;;5072996;28;20217;-76
2021/04/14 04:12:35;;;;;;;5.30;3.47;;;6.10;99.90;;;;;;5072561;28;20689;-73
2021/04/14 04:15:05;;;;;;;3.90;3.07;;;6.20;99.90;;;;;;5072113;28;20241;-75
2021/04/14 04:17:31;;;;;;;5.70;3.60;;;6.10;99.90;;;;;;5072593;28;20292;-75
2021/04/14 04:19:58;;;;;;;2.83;2.13;;;6.10;99.90;;;;;;5072434;28;20609;-75
2021/04/14 04:22:24;;;;;;;4.23;3.20;;;6.00;99.90;;;;;;5072036;28;20211;-74
2021/04/14 04:24:52;;;;;;;3.40;3.10;;;6.10;99.90;;;;;;5071919;28;20210;-74
2021/04/14 04:27:19;;;;;;;2.77;2.57;;;6.10;99.90;;;;;;5072218;28;20210;-76
2021/04/14 04:29:45;;;;;;;4.00;3.30;;;6.20;99.90;;;;;;5071859;28;20203;-74
2021/04/14 04:32:12;;;;;;;3.67;3.37;;;6.20;99.90;;;;;;5072203;28;20217;-75
2021/04/14 04:34:39;;;;;;;3.67;2.60;;;6.10;99.90;;;;;;5071699;28;20226;-73
2021/04/14 04:37:06;;;;;;;3.40;3.10;;;5.90;99.90;;;;;;5072274;28;20233;-74
2021/04/14 04:39:32;;;;;;;3.10;2.80;;;6.00;99.90;;;;;;5072254;28;20202;-74
2021/04/14 04:41:59;;;;;;;3.00;2.67;;;5.90;99.90;;;;;;5071349;28;20221;-76
2021/04/14 04:44:25;;;;;;;4.33;3.00;;;6.00;99.90;;;;;;5071534;28;21097;-74
2021/04/14 04:46:52;;;;;;;10.30;3.63;;;5.80;99.90;;;;;;5070714;28;20206;-73
2021/04/14 04:49:19;;;;;;;4.73;3.00;;;5.90;99.90;;;;;;5061162;28;20207;-75
2021/04/14 04:51:45;;;;;;;5.83;3.67;;;5.90;99.90;;;;;;5069453;28;20260;-73
2021/04/14 04:54:12;;;;;;;3.70;2.87;;;5.70;99.90;;;;;;5069590;28;20264;-73
2021/04/14 04:56:38;;;;;;;3.57;3.03;;;5.90;99.90;;;;;;5070290;28;20210;-74
2021/04/14 04:59:05;;;;;;;3.93;2.57;;;5.80;99.90;;;;;;5071529;28;20576;-73
2021/04/14 05:01:32;;;;;;;6.70;3.23;;;5.70;99.90;;;;;;5071345;28;20259;-73
2021/04/14 05:03:59;;;;;;;4.67;2.70;;;5.80;99.90;;;;;;5070929;28;20639;-73
2021/04/14 05:06:26;;;;;;;3.20;2.63;;;5.70;99.90;;;;;;5071062;28;20673;-73
2021/04/14 05:08:52;;;;;;;5.10;2.50;;;5.70;99.90;;;;;;5071377;28;20206;-74
2021/04/14 05:11:19;;;;;;;4.83;3.40;;;5.80;99.90;;;;;;5071226;28;20335;-76
2021/04/14 05:13:45;;;;;;;3.47;2.93;;;5.70;99.90;;;;;;5070949;28;20280;-76
2021/04/14 05:16:12;;;;;;;4.03;2.60;;;5.70;99.90;;;;;;5071505;28;20233;-77
2021/04/14 05:18:38;;;;;;;3.23;3.00;;;5.70;99.90;;;;;;5071129;28;20229;-74
2021/04/14 05:21:07;;;;;;;3.80;3.50;;;5.70;99.90;;;;;;5071232;28;20678;-76
2021/04/14 05:23:34;;;;;;;3.80;3.00;;;5.70;99.90;;;;;;5070996;28;20677;-73
2021/04/14 05:26:01;;;;;;;3.33;2.83;;;5.80;99.90;;;;;;5070594;28;20214;-73
2021/04/14 05:28:27;;;;;;;4.97;2.77;;;5.70;99.90;;;;;;5070725;28;20661;-73
2021/04/14 05:30:55;;;;;;;5.07;2.67;;;5.80;99.90;;;;;;5070787;28;20252;-73
2021/04/14 05:33:22;;;;;;;4.17;2.70;;;5.70;99.90;;;;;;5071074;28;20217;-72
2021/04/14 05:35:49;;;;;;;4.37;3.20;;;5.80;99.90;;;;;;5070904;28;20236;-72
2021/04/14 05:38:15;;;;;;;4.17;3.30;;;5.90;99.90;;;;;;5070861;28;20255;-74
2021/04/14 05:40:43;;;;;;;4.07;2.77;;;5.80;99.90;;;;;;5070528;28;20213;-75
2021/04/14 05:43:17;;;;;;;4.30;3.90;;;5.80;99.90;;;;;;5070819;28;20217;-75
2021/04/14 05:45:45;;;;;;;3.80;3.40;;;5.80;99.90;;;;;;5070265;28;20650;-75
2021/04/14 05:48:13;;;;;;;4.77;3.67;;;5.70;99.90;;;;;;5070733;28;20301;-74
2021/04/14 05:50:40;;;;;;;3.83;2.60;;;5.90;99.90;;;;;;5070077;28;20678;-73
2021/04/14 05:53:08;;;;;;;3.87;3.33;;;6.00;99.90;;;;;;5070959;28;20209;-75
2021/04/14 05:55:34;;;;;;;3.87;3.47;;;5.90;99.90;;;;;;5070255;28;20269;-75
2021/04/14 05:58:01;;;;;;;5.63;4.13;;;5.90;99.90;;;;;;5071027;28;20275;-75
2021/04/14 06:00:28;;;;;;;8.00;3.70;;;5.90;99.90;;;;;;5070237;28;20209;-74
2021/04/14 06:02:55;;;;;;;7.90;4.17;;;6.10;99.90;;;;;;5070845;28;20548;-75
2021/04/14 06:05:23;;;;;;;7.07;4.43;;;6.10;99.90;;;;;;5070338;28;20213;-76
2021/04/14 06:07:49;;;;;;;5.03;3.57;;;6.20;99.90;;;;;;5070871;28;20206;-75
2021/04/14 06:10:19;;;;;;;6.33;4.67;;;6.40;99.90;;;;;;5069732;28;20209;-74
2021/04/14 06:12:46;;;;;;;5.57;4.97;;;6.60;99.90;;;;;;5070317;28;20654;-75
2021/04/14 06:15:16;;;;;;;7.43;4.83;;;6.70;99.90;;;;;;5070425;28;20225;-75
2021/04/14 06:17:42;;;;;;;5.07;4.50;;;6.70;99.90;;;;;;5070015;28;20228;-74
2021/04/14 06:20:10;;;;;;;5.53;4.43;;;6.90;99.90;;;;;;5070618;28;20218;-73
2021/04/14 06:22:37;;;;;;;5.30;4.83;;;7.10;99.90;;;;;;5070070;28;20202;-73
2021/04/14 06:25:04;;;;;;;6.47;5.23;;;7.30;99.90;;;;;;5070458;28;20210;-76
2021/04/14 06:27:35;;;;;;;5.50;4.87;;;7.50;99.90;;;;;;5069861;28;20214;-72
2021/04/14 06:30:03;;;;;;;4.63;3.97;;;7.70;99.90;;;;;;5070432;28;20214;-72
2021/04/14 06:32:31;;;;;;;5.53;3.80;;;7.70;99.90;;;;;;5069635;28;20214;-72
2021/04/14 06:34:57;;;;;;;9.27;4.33;;;7.60;99.90;;;;;;5070265;28;20236;-73
2021/04/14 06:37:24;;;;;;;7.23;3.97;;;7.60;99.90;;;;;;5069826;28;20282;-73
2021/04/14 06:40:06;;;;;;;6.30;4.37;;;7.50;99.90;;;;;;5069988;28;20707;-73
2021/04/14 06:42:46;;;;;;;5.20;4.70;;;7.60;99.90;;;;;;5069758;28;20283;-75
2021/04/14 06:45:19;;;;;;;6.20;4.27;;;7.60;99.90;;;;;;5057913;28;20627;-75
2021/04/14 06:48:02;;;;;;;5.93;4.23;;;7.60;99.90;;;;;;5069841;28;20249;-74
2021/04/14 06:50:32;;;;;;;8.07;4.57;;;8.00;99.90;;;;;;5069584;28;20201;-73
2021/04/14 06:53:09;;;;;;;16.07;5.60;;;8.20;99.90;;;;;;5069915;28;20256;-75
2021/04/14 06:55:41;;;;;;;7.33;5.73;;;8.60;99.90;;;;;;5069608;28;20233;-75
2021/04/14 06:58:11;;;;;;;9.97;4.80;;;8.60;99.90;;;;;;5070598;28;20205;-73
2021/04/14 07:00:42;;;;;;;7.17;4.73;;;8.90;99.90;;;;;;5069832;28;20229;-73
2021/04/14 07:03:12;;;;;;;4.63;4.17;;;8.60;99.90;;;;;;5070439;28;20609;-72
2021/04/14 07:05:43;;;;;;;5.60;4.50;;;8.80;99.90;;;;;;5070136;28;20259;-72
2021/04/14 07:08:18;;;;;;;8.93;4.67;;;8.80;99.90;;;;;;5069237;28;20206;-74
2021/04/14 07:10:45;;;;;;;5.37;4.87;;;8.40;99.90;;;;;;5053968;28;20211;-73
2021/04/14 07:13:13;;;;;;;6.97;4.57;;;8.60;99.90;;;;;;5058921;28;20210;-72
2021/04/14 07:15:39;;;;;;;5.10;4.60;;;8.60;99.90;;;;;;5063196;28;20252;-72
2021/04/14 07:18:19;;;;;;;5.90;4.87;;;8.50;99.90;;;;;;5076911;28;20264;-76
2021/04/14 07:20:53;;;;;;;6.93;4.67;;;8.60;99.90;;;;;;5085566;28;20534;-76
2021/04/14 07:23:33;;;;;;;13.13;4.90;;;8.90;99.90;;;;;;5091676;28;20209;-72
2021/04/14 07:26:02;;;;;;;5.37;4.83;;;9.30;99.90;;;;;;5067759;28;20205;-76
2021/04/14 07:28:43;;;;;;;7.00;4.90;;;9.10;99.90;;;;;;5072862;28;20617;-69
2021/04/14 07:31:12;;;;;;;6.07;5.43;;;9.10;99.90;;;;;;5080785;28;20206;-71
2021/04/14 07:33:56;;;;;;;5.03;4.60;;;9.00;99.90;;;;;;5073457;28;20202;-73
2021/04/14 07:36:39;;;;;;;8.80;5.53;;;9.50;99.90;;;;;;5066722;28;20716;-72
2021/04/14 07:39:14;;;;;;;7.20;5.10;;;9.20;99.90;;;;;;5086502;28;20208;-72
2021/04/14 07:41:50;;;;;;;11.50;5.93;;;9.10;99.90;;;;;;5088575;28;20201;-72
2021/04/14 07:44:23;;;;;;;8.97;5.50;;;9.20;99.90;;;;;;5082541;28;20300;-75
2021/04/14 07:46:50;;;;;;;9.43;5.30;;;9.20;99.90;;;;;;5076385;28;20202;-76
2021/04/14 07:49:21;;;;;;;11.60;5.67;;;9.30;99.90;;;;;;5066913;28;20252;-73
2021/04/14 07:51:48;;;;;;;6.60;4.83;;;9.20;99.90;;;;;;5063020;28;20202;-75
2021/04/14 07:54:18;;;;;;;9.67;5.13;;;9.10;99.90;;;;;;5073151;28;20206;-77
2021/04/14 07:56:48;;;;;;;8.93;5.00;;;9.10;99.90;;;;;;5071688;28;20237;-70
2021/04/14 07:59:24;;;;;;;8.70;6.50;;;9.10;99.90;;;;;;5074590;28;20293;-72
2021/04/14 08:01:53;;;;;;;7.50;4.83;;;9.30;99.90;;;;;;5057467;28;20251;-70
2021/04/14 08:04:27;;;;;;;8.27;5.60;;;9.40;99.90;;;;;;5076243;28;20203;-72
2021/04/14 08:07:05;;;;;;;6.20;5.17;;;9.50;99.90;;;;;;5075334;28;20206;-71
2021/04/14 08:09:32;;;;;;;6.45;5.15;;;9.80;99.90;;;;;;5070119;28;20829;-76
2021/04/14 08:12:07;;;;;;;5.27;4.77;;;10.20;99.90;;;;;;5074721;28;20681;-71
2021/04/14 08:14:37;;;;;;;12.83;5.47;;;10.40;99.90;;;;;;5078048;28;20740;-79
2021/04/14 08:17:16;;;;;;;7.80;5.13;;;10.30;99.90;;;;;;5073650;28;20671;-73
2021/04/14 08:19:44;;;;;;;8.20;6.03;;;10.30;99.90;;;;;;5073618;28;20198;-72
2021/04/14 08:22:22;;;;;;;11.10;6.70;;;10.10;99.90;;;;;;5072526;28;20213;-84
2021/04/14 08:24:52;;;;;;;8.03;5.40;;;10.20;99.90;;;;;;5078534;28;20201;-78
2021/04/14 08:27:22;;;;;;;10.23;4.40;;;10.30;99.90;;;;;;5078033;28;20642;-78
2021/04/14 08:30:00;;;;;;;6.90;4.70;;;10.50;99.90;;;;;;5081318;28;20252;-81
2021/04/14 08:32:28;;;;;;;6.73;5.70;;;11.10;99.90;;;;;;5076911;28;20198;-81
2021/04/14 08:35:01;;;;;;;12.53;5.67;;;12.50;99.90;;;;;;5064344;28;20237;-77
2021/04/14 08:37:28;;;;;;;6.30;4.93;;;14.10;99.90;;;;;;5060692;28;20201;-77
2021/04/14 08:39:58;;;;;;;5.27;4.77;;;15.70;99.90;;;;;;5068149;28;20209;-80
2021/04/14 08:42:29;;;;;;;7.10;4.20;;;14.20;99.90;;;;;;5078297;28;20202;-79
2021/04/14 08:45:10;;;;;;;5.53;5.03;;;12.90;99.90;;;;;;5079512;28;20202;-79
2021/04/14 08:47:39;;;;;;;7.97;5.73;;;12.70;99.90;;;;;;5080490;28;20312;-79
2021/04/14 08:50:16;;;;;;;6.27;4.10;;;12.80;99.90;;;;;;5063303;28;20216;-79
2021/04/14 08:52:44;;;;;;;7.07;4.53;;;12.90;99.90;;;;;;5060564;28;20206;-79
2021/04/14 08:55:13;;;;;;;7.00;5.17;;;12.80;99.90;;;;;;5067519;28;20233;-79
2021/04/14 08:57:39;;;;;;;9.77;4.97;;;12.80;99.90;;;;;;5071503;28;20217;-80
2021/04/14 09:00:09;;;;;;;5.13;4.63;;;13.00;99.90;;;;;;5071425;28;20214;-78
2021/04/14 09:02:36;;;;;;;12.53;5.67;;;13.10;99.90;;;;;;5071143;28;20202;-81
2021/04/14 09:05:06;;;;;;;9.90;5.77;;;12.70;99.90;;;;;;5071638;28;20217;-81
2021/04/14 09:07:36;;;;;;;8.17;5.80;;;12.50;99.90;;;;;;5071073;28;20198;-80
2021/04/14 09:10:06;;;;;;;8.13;6.13;;;12.30;99.90;;;;;;5071596;28;20202;-80
2021/04/14 09:12:39;;;;;;;9.75;6.43;;;12.60;99.90;;;;;;5070643;28;20194;-78
2021/04/14 09:15:09;;;;;;;7.20;6.40;;;13.10;99.90;;;;;;5071458;28;20253;-81
2021/04/14 09:17:35;;;;;;;6.65;5.30;;;12.90;99.90;;;;;;5070833;28;20229;-81
2021/04/14 09:20:17;;;;;;;9.48;5.07;;;13.20;99.90;;;;;;5071565;28;20216;-80
2021/04/14 09:22:45;;;;;;;8.93;6.25;;;13.30;99.90;;;;;;5071124;28;20267;-81
2021/04/14 09:25:19;;;;;;;11.35;5.22;;;12.90;99.90;;;;;;5071121;28;20217;-81
2021/04/14 09:27:50;;;;;;;8.60;5.53;;;13.60;99.90;;;;;;5070960;28;20686;-81
2021/04/14 09:30:28;;;;;;;11.02;5.45;;;13.60;99.90;;;;;;5071563;28;20202;-82
2021/04/14 09:33:19;;;;;;;7.13;5.03;;;15.30;99.90;;;;;;5071076;28;20202;-82
2021/04/14 09:36:04;;;;;;;5.20;4.70;;;15.10;99.90;;;;;;5070416;28;20229;-81
2021/04/14 09:38:36;;;;;;;5.72;5.00;;;16.60;99.90;;;;;;5070647;28;20206;-82
2021/04/14 09:41:15;;;;;;;5.40;4.47;;;19.20;99.90;;;;;;5070927;28;20206;-86
2021/04/14 09:43:43;;;;;;;6.97;4.85;;;22.30;99.90;;;;;;5069692;28;20613;-85
2021/04/14 09:46:12;;;;;;;6.13;4.95;;;20.90;99.90;;;;;;5070452;28;20206;-83
2021/04/14 09:48:42;;;;;;;6.65;4.78;;;22.10;99.90;;;;;;5068741;28;20704;-81
2021/04/14 09:51:34;;;;;;;10.48;5.93;;;23.50;99.90;;;;;;5070613;28;20588;-80
2021/04/14 09:54:08;;;;;;;5.25;3.88;;;23.10;99.90;;;;;;5051649;28;20636;-83
2021/04/14 09:56:35;;;;;;;6.65;4.47;;;23.00;99.90;;;;;;5059662;28;20237;-79
2021/04/14 09:59:07;;;;;;;6.80;3.55;;;23.50;99.90;;;;;;5063650;28;20622;-79
2021/04/14 10:01:37;;;;;;;6.38;4.45;;;22.60;99.90;;;;;;5062684;28;20337;-80
2021/04/14 10:04:05;;;;;;;8.63;4.07;;;23.00;99.90;;;;;;5069620;28;20243;-81
2021/04/14 10:06:34;;;;;;;7.38;3.85;;;24.10;99.90;;;;;;5065167;28;20263;-78
2021/04/14 10:09:04;;;;;;;4.90;3.83;;;24.20;99.90;;;;;;5061725;28;20198;-79
2021/04/14 10:11:33;;;;;;;10.80;4.45;;;22.70;99.90;;;;;;5062435;28;20627;-80
2021/04/14 10:14:09;;;;;;;7.18;4.00;;;23.80;99.90;;;;;;5071900;28;20284;-78
2021/04/14 10:16:36;;;;;;;5.50;3.90;;;20.50;99.90;;;;;;5070642;28;20224;-79
2021/04/14 10:19:05;;;;;;;5.43;3.65;;;23.50;99.90;;;;;;5062677;28;20225;-80
2021/04/14 10:21:35;;;;;;;4.45;4.03;;;24.20;99.90;;;;;;5089716;28;20228;-79
2021/04/14 10:24:06;;;;;;;4.90;3.28;;;23.60;99.90;;;;;;5087490;28;20209;-79
2021/04/14 10:26:35;;;;;;;7.32;3.78;;;24.10;99.90;;;;;;5077940;28;20213;-78
2021/04/14 10:29:05;;;;;;;4.18;3.25;;;25.30;99.90;;;;;;5077725;28;20236;-79
2021/04/14 10:31:35;;;;;;;6.82;3.25;;;25.60;99.90;;;;;;5089812;28;20205;-78
2021/04/14 10:34:09;;;;;;;15.30;4.15;;;21.10;99.90;;;;;;5089461;28;20599;-77
2021/04/14 10:36:39;;;;;;;5.20;3.15;;;17.10;99.90;;;;;;5064618;28;20224;-78
2021/04/14 10:39:12;;;;;;;4.55;3.30;;;15.70;99.90;;;;;;5090142;28;20205;-77
2021/04/14 10:41:39;;;;;;;4.28;3.35;;;15.50;99.90;;;;;;5063337;28;20251;-78
2021/04/14 10:44:17;;;;;;;5.60;3.42;;;15.00;99.90;;;;;;5089735;28;20209;-77
2021/04/14 10:46:44;;;;;;;2.78;2.53;;;15.10;99.90;;;;;;5063011;28;20712;-76
2021/04/14 10:49:15;;;;;;;4.82;3.03;;;14.60;99.90;;;;;;5090196;28;20243;-76
2021/04/14 10:51:46;;;;;;;2.33;2.20;;;14.80;99.90;;;;;;5073833;28;20214;-78
2021/04/14 10:54:15;;;;;;;3.22;2.90;;;15.00;99.90;;;;;;5069898;28;20621;-77
2021/04/14 10:56:42;;;;;;;3.03;2.65;;;14.90;99.90;;;;;;5072993;28;20257;-78
2021/04/14 10:59:11;;;;;;;3.75;2.67;;;15.00;99.90;;;;;;5073688;28;20209;-78
2021/04/14 11:01:40;;;;;;;4.22;2.40;;;15.20;99.90;;;;;;5073798;28;20324;-78
2021/04/14 11:04:21;;;;;;;3.90;2.63;;;15.60;99.90;;;;;;5073653;28;20213;-78
2021/04/14 11:06:51;;;;;;;2.83;2.30;;;15.50;99.90;;;;;;5073788;28;20620;-78
2021/04/14 11:09:20;;;;;;;4.28;3.05;;;15.70;99.90;;;;;;5073840;28;20210;-80
2021/04/14 11:11:47;;;;;;;4.93;3.60;;;15.60;99.90;;;;;;5073260;28;20215;-81
2021/04/14 11:14:17;;;;;;;3.92;2.65;;;15.40;99.90;;;;;;5073233;28;20252;-79
2021/04/14 11:16:45;;;;;;;5.13;2.38;;;15.20;99.90;;;;;;5073393;28;21010;-79
2021/04/14 11:19:13;;;;;;;3.75;3.05;;;15.00;99.90;;;;;;5073299;28;20596;-77
2021/04/14 11:21:40;;;;;;;6.25;5.00;;;15.00;99.90;;;;;;5073261;28;20202;-78
2021/04/14 11:24:09;;;;;;;5.00;3.25;;;15.40;99.90;;;;;;5073282;28;20274;-77
2021/04/14 11:26:39;;;;;;;3.35;3.00;;;15.10;99.90;;;;;;5073000;28;20221;-79
2021/04/14 11:29:07;;;;;;;3.35;3.05;;;15.00;99.90;;;;;;5073105;28;20206;-77
2021/04/14 11:31:37;;;;;;;6.72;2.90;;;14.70;99.90;;;;;;5073213;28;20289;-78
2021/04/14 11:34:16;;;;;;;3.53;2.85;;;14.80;99.90;;;;;;5073432;28;20689;-80
2021/04/14 11:36:55;;;;;;;4.93;2.55;;;14.80;99.90;;;;;;5060519;28;21061;-78
2021/04/14 11:39:22;;;;;;;2.40;2.20;;;15.20;99.90;;;;;;5072227;28;20206;-78
2021/04/14 11:42:03;;;;;;;5.25;2.75;;;15.10;99.90;;;;;;5072037;28;20674;-78
2021/04/14 11:44:40;;;;;;;10.88;4.40;;;15.30;99.90;;;;;;5072411;28;20669;-79
2021/04/14 11:47:10;;;;;;;5.25;3.20;;;15.70;99.90;;;;;;5072898;28;20601;-79
2021/04/14 11:49:37;;;;;;;4.07;3.60;;;16.00;99.90;;;;;;5072537;28;20217;-79
2021/04/14 11:52:16;;;;;;;7.13;3.20;;;15.80;99.90;;;;;;5072864;28;20213;-80
2021/04/14 11:54:43;;;;;;;3.50;2.30;;;15.70;99.90;;;;;;5072446;28;20251;-78
2021/04/14 11:57:23;;;;;;;3.90;2.90;;;15.60;99.90;;;;;;5072481;28;20234;-78
2021/04/14 12:00:03;;;;;;;3.25;2.78;;;15.80;99.90;;;;;;5073250;28;20347;-79
2021/04/14 12:02:31;;;;;;;5.20;2.05;;;16.00;99.90;;;;;;5058679;28;20668;-79
2021/04/14 12:04:59;;;;;;;2.90;2.60;;;16.10;99.90;;;;;;5072627;28;20210;-79
2021/04/14 12:07:26;;;;;;;6.68;2.47;;;16.40;99.90;;;;;;5071072;28;20206;-78
2021/04/14 12:09:53;;;;;;;5.38;3.00;;;16.30;99.90;;;;;;5072640;28;20720;-77
2021/04/14 12:12:21;;;;;;;15.90;3.55;;;16.10;99.90;;;;;;5072715;28;20204;-78
2021/04/14 12:14:48;;;;;;;10.40;4.03;;;15.90;99.90;;;;;;5072982;28;20205;-77
2021/04/14 12:17:15;;;;;;;5.55;2.60;;;16.00;99.90;;;;;;5072436;28;20230;-79
2021/04/14 12:19:44;;;;;;;3.45;3.13;;;16.00;99.90;;;;;;5072279;28;20209;-78
2021/04/14 12:22:11;;;;;;;4.38;2.17;;;16.00;99.90;;;;;;5072436;28;20218;-78
2021/04/14 12:24:38;;;;;;;2.50;2.30;;;16.00;99.90;;;;;;5071729;28;20206;-80
2021/04/14 12:27:05;;;;;;;6.90;2.88;;;15.80;99.90;;;;;;5072290;28;20210;-78
2021/04/14 12:29:32;;;;;;;21.40;4.78;;;15.90;99.90;;;;;;5071429;28;20206;-78
2021/04/14 12:31:59;;;;;;;6.63;2.40;;;15.80;99.90;;;;;;5072546;28;20260;-76
2021/04/14 12:34:25;;;;;;;3.58;2.13;;;16.00;99.90;;;;;;5071809;28;20280;-78
2021/04/14 12:36:52;;;;;;;4.15;3.13;;;15.80;99.90;;;;;;5072320;28;20234;-78
2021/04/14 12:39:19;;;;;;;29.50;5.47;;;15.60;99.90;;;;;;5071936;28;20677;-77
2021/04/14 12:41:45;;;;;;;3.65;2.20;;;16.00;99.90;;;;;;5071719;28;20206;-78
2021/04/14 12:44:12;;;;;;;4.15;2.72;;;16.30;99.90;;;;;;5071851;28;20685;-78
2021/04/14 12:46:44;;;;;;;5.15;2.10;;;16.70;99.90;;;;;;5071208;28;20677;-78
2021/04/14 12:49:13;;;;;;;5.90;2.90;;;16.60;99.90;;;;;;5071703;28;20564;-78
2021/04/14 12:51:44;;;;;;;4.75;2.53;;;16.50;99.90;;;;;;5071256;28;20206;-76
2021/04/14 12:54:23;;;;;;;4.28;3.17;;;16.20;99.90;;;;;;5071482;28;20662;-79
2021/04/14 12:56:53;;;;;;;5.78;3.28;;;16.20;99.90;;;;;;5071934;28;20708;-80
2021/04/14 12:59:22;;;;;;;5.15;2.75;;;16.30;99.90;;;;;;5072115;28;20214;-75
2021/04/14 13:01:52;;;;;;;4.60;2.42;;;16.30;99.90;;;;;;5071604;28;20293;-78
2021/04/14 13:04:27;;;;;;;4.00;2.45;;;16.30;99.90;;;;;;5067500;28;20611;-79